sensor_id;sensor_type;location;lat;lon;timestamp;temperature;humidity
68609;SHT31;55581;46.718;7.690;2023-08-30T00:00:40;12.35;89.81
68609;SHT31;55581;46.718;7.690;2023-08-30T00:03:05;12.33;90.28
68609;SHT31;55581;46.718;7.690;2023-08-30T00:05:31;12.35;89.84
68609;SHT31;55581;46.718;7.690;2023-08-30T00:07:57;12.33;90.15
68609;SHT31;55581;46.718;7.690;2023-08-30T00:10:22;12.31;90.37
68609;SHT31;55581;46.718;7.690;2023-08-30T00:12:48;12.33;90.33
68609;SHT31;55581;46.718;7.690;2023-08-30T00:15:14;12.42;91.29
68609;SHT31;55581;46.718;7.690;2023-08-30T00:17:41;12.52;91.55
68609;SHT31;55581;46.718;7.690;2023-08-30T00:20:07;12.63;91.04
68609;SHT31;55581;46.718;7.690;2023-08-30T00:22:34;12.69;90.71
68609;SHT31;55581;46.718;7.690;2023-08-30T00:25:00;12.76;90.00
68609;SHT31;55581;46.718;7.690;2023-08-30T00:27:25;12.79;90.16
68609;SHT31;55581;46.718;7.690;2023-08-30T00:29:50;12.81;89.81
68609;SHT31;55581;46.718;7.690;2023-08-30T00:32:18;12.83;90.29
68609;SHT31;55581;46.718;7.690;2023-08-30T00:34:44;12.86;90.30
68609;SHT31;55581;46.718;7.690;2023-08-30T00:37:11;12.84;89.83
68609;SHT31;55581;46.718;7.690;2023-08-30T00:39:37;12.84;89.88
68609;SHT31;55581;46.718;7.690;2023-08-30T00:42:04;12.87;89.57
68609;SHT31;55581;46.718;7.690;2023-08-30T00:44:31;12.91;89.22
68609;SHT31;55581;46.718;7.690;2023-08-30T00:47:00;12.95;88.61
68609;SHT31;55581;46.718;7.690;2023-08-30T00:49:26;12.90;89.76
68609;SHT31;55581;46.718;7.690;2023-08-30T00:51:52;12.87;90.19
68609;SHT31;55581;46.718;7.690;2023-08-30T00:54:17;12.86;89.83
68609;SHT31;55581;46.718;7.690;2023-08-30T00:56:43;12.81;90.22
68609;SHT31;55581;46.718;7.690;2023-08-30T00:59:09;12.79;90.55
68609;SHT31;55581;46.718;7.690;2023-08-30T01:01:37;12.76;90.45
68609;SHT31;55581;46.718;7.690;2023-08-30T01:04:04;12.79;89.97
68609;SHT31;55581;46.718;7.690;2023-08-30T01:06:29;12.77;89.71
68609;SHT31;55581;46.718;7.690;2023-08-30T01:08:55;12.73;90.14
68609;SHT31;55581;46.718;7.690;2023-08-30T01:14:08;12.67;90.66
68609;SHT31;55581;46.718;7.690;2023-08-30T01:16:37;12.72;90.93
68609;SHT31;55581;46.718;7.690;2023-08-30T01:19:36;12.72;90.26
68609;SHT31;55581;46.718;7.690;2023-08-30T01:27:19;12.70;90.62
68609;SHT31;55581;46.718;7.690;2023-08-30T01:29:46;12.72;90.74
68609;SHT31;55581;46.718;7.690;2023-08-30T01:32:12;12.70;89.95
68609;SHT31;55581;46.718;7.690;2023-08-30T01:34:42;12.79;88.90
68609;SHT31;55581;46.718;7.690;2023-08-30T01:37:11;12.83;88.56
68609;SHT31;55581;46.718;7.690;2023-08-30T01:39:39;12.86;88.96
68609;SHT31;55581;46.718;7.690;2023-08-30T01:42:06;12.91;88.85
68609;SHT31;55581;46.718;7.690;2023-08-30T01:44:35;12.91;88.66
68609;SHT31;55581;46.718;7.690;2023-08-30T01:47:03;12.93;88.40
68609;SHT31;55581;46.718;7.690;2023-08-30T01:49:31;12.93;88.40
68609;SHT31;55581;46.718;7.690;2023-08-30T01:51:57;12.91;88.16
68609;SHT31;55581;46.718;7.690;2023-08-30T01:54:24;12.90;89.12
68609;SHT31;55581;46.718;7.690;2023-08-30T01:56:49;12.81;90.15
68609;SHT31;55581;46.718;7.690;2023-08-30T01:59:15;12.73;91.06
68609;SHT31;55581;46.718;7.690;2023-08-30T02:01:40;12.72;91.24
68609;SHT31;55581;46.718;7.690;2023-08-30T02:04:08;12.69;91.46
68609;SHT31;55581;46.718;7.690;2023-08-30T02:09:09;12.66;91.51
68609;SHT31;55581;46.718;7.690;2023-08-30T02:11:37;12.61;90.95
68609;SHT31;55581;46.718;7.690;2023-08-30T02:14:05;12.57;90.60
68609;SHT31;55581;46.718;7.690;2023-08-30T02:16:33;12.60;91.29
68609;SHT31;55581;46.718;7.690;2023-08-30T02:18:59;12.57;90.68
68609;SHT31;55581;46.718;7.690;2023-08-30T02:21:25;12.63;88.91
68609;SHT31;55581;46.718;7.690;2023-08-30T02:23:54;12.73;87.79
68609;SHT31;55581;46.718;7.690;2023-08-30T02:26:20;12.81;87.12
68609;SHT31;55581;46.718;7.690;2023-08-30T02:28:45;12.86;87.34
68609;SHT31;55581;46.718;7.690;2023-08-30T02:31:11;12.80;88.79
68609;SHT31;55581;46.718;7.690;2023-08-30T02:33:36;12.72;89.45
68609;SHT31;55581;46.718;7.690;2023-08-30T02:36:03;12.70;88.90
68609;SHT31;55581;46.718;7.690;2023-08-30T02:38:28;12.64;89.36
68609;SHT31;55581;46.718;7.690;2023-08-30T02:40:56;12.60;89.80
68609;SHT31;55581;46.718;7.690;2023-08-30T02:43:22;12.55;89.05
68609;SHT31;55581;46.718;7.690;2023-08-30T02:45:49;12.59;89.24
68609;SHT31;55581;46.718;7.690;2023-08-30T02:48:16;12.60;89.03
68609;SHT31;55581;46.718;7.690;2023-08-30T02:50:42;12.61;89.21
68609;SHT31;55581;46.718;7.690;2023-08-30T02:53:07;12.50;89.97
68609;SHT31;55581;46.718;7.690;2023-08-30T02:55:35;12.48;89.29
68609;SHT31;55581;46.718;7.690;2023-08-30T02:58:01;12.36;89.88
68609;SHT31;55581;46.718;7.690;2023-08-30T03:00:26;12.45;88.90
68609;SHT31;55581;46.718;7.690;2023-08-30T03:02:51;12.49;88.57
68609;SHT31;55581;46.718;7.690;2023-08-30T03:05:18;12.46;88.84
68609;SHT31;55581;46.718;7.690;2023-08-30T03:07:43;12.48;88.72
68609;SHT31;55581;46.718;7.690;2023-08-30T03:10:11;12.45;89.21
68609;SHT31;55581;46.718;7.690;2023-08-30T03:12:37;12.28;89.28
68609;SHT31;55581;46.718;7.690;2023-08-30T03:15:03;12.20;90.28
68609;SHT31;55581;46.718;7.690;2023-08-30T03:17:29;12.15;90.35
68609;SHT31;55581;46.718;7.690;2023-08-30T03:19:55;12.15;89.92
68609;SHT31;55581;46.718;7.690;2023-08-30T03:22:20;12.17;89.57
68609;SHT31;55581;46.718;7.690;2023-08-30T03:24:48;12.08;90.65
68609;SHT31;55581;46.718;7.690;2023-08-30T03:27:14;12.08;89.88
68609;SHT31;55581;46.718;7.690;2023-08-30T03:29:42;12.02;90.42
68609;SHT31;55581;46.718;7.690;2023-08-30T03:32:07;11.93;90.82
68609;SHT31;55581;46.718;7.690;2023-08-30T03:34:33;11.93;91.39
68609;SHT31;55581;46.718;7.690;2023-08-30T03:36:58;11.84;90.71
68609;SHT31;55581;46.718;7.690;2023-08-30T03:39:24;11.83;90.70
68609;SHT31;55581;46.718;7.690;2023-08-30T03:41:50;11.80;90.83
68609;SHT31;55581;46.718;7.690;2023-08-30T03:44:15;11.73;90.65
68609;SHT31;55581;46.718;7.690;2023-08-30T03:46:41;11.65;90.96
68609;SHT31;55581;46.718;7.690;2023-08-30T03:49:06;11.59;91.53
68609;SHT31;55581;46.718;7.690;2023-08-30T03:51:32;11.43;91.55
68609;SHT31;55581;46.718;7.690;2023-08-30T03:53:59;11.38;91.66
68609;SHT31;55581;46.718;7.690;2023-08-30T03:56:25;11.38;91.93
68609;SHT31;55581;46.718;7.690;2023-08-30T03:58:50;11.38;91.85
68609;SHT31;55581;46.718;7.690;2023-08-30T04:01:16;11.32;92.11
68609;SHT31;55581;46.718;7.690;2023-08-30T04:03:41;11.28;92.00
68609;SHT31;55581;46.718;7.690;2023-08-30T04:06:06;11.18;91.79
68609;SHT31;55581;46.718;7.690;2023-08-30T04:08:32;11.11;92.54
68609;SHT31;55581;46.718;7.690;2023-08-30T04:11:01;11.05;92.45
68609;SHT31;55581;46.718;7.690;2023-08-30T04:13:29;11.01;92.34
68609;SHT31;55581;46.718;7.690;2023-08-30T04:15:54;11.04;92.18
68609;SHT31;55581;46.718;7.690;2023-08-30T04:18:21;11.00;91.89
68609;SHT31;55581;46.718;7.690;2023-08-30T04:20:47;10.98;91.65
68609;SHT31;55581;46.718;7.690;2023-08-30T04:23:13;11.04;91.14
68609;SHT31;55581;46.718;7.690;2023-08-30T04:25:38;11.00;90.99
68609;SHT31;55581;46.718;7.690;2023-08-30T04:28:04;11.00;90.99
68609;SHT31;55581;46.718;7.690;2023-08-30T04:30:32;11.08;90.59
68609;SHT31;55581;46.718;7.690;2023-08-30T04:32:58;11.14;90.99
68609;SHT31;55581;46.718;7.690;2023-08-30T04:35:24;11.19;90.91
68609;SHT31;55581;46.718;7.690;2023-08-30T04:37:49;11.19;90.36
68609;SHT31;55581;46.718;7.690;2023-08-30T04:40:15;11.19;89.95
68609;SHT31;55581;46.718;7.690;2023-08-30T04:42:40;11.16;89.56
68609;SHT31;55581;46.718;7.690;2023-08-30T04:45:06;11.12;89.64
68609;SHT31;55581;46.718;7.690;2023-08-30T04:47:32;11.10;90.62
68609;SHT31;55581;46.718;7.690;2023-08-30T04:49:58;10.98;90.45
68609;SHT31;55581;46.718;7.690;2023-08-30T04:52:23;10.98;90.50
68609;SHT31;55581;46.718;7.690;2023-08-30T04:54:49;10.91;91.08
68609;SHT31;55581;46.718;7.690;2023-08-30T04:57:19;10.87;91.04
68609;SHT31;55581;46.718;7.690;2023-08-30T04:59:45;10.87;91.21
68609;SHT31;55581;46.718;7.690;2023-08-30T05:02:11;10.85;90.99
68609;SHT31;55581;46.718;7.690;2023-08-30T05:04:37;10.85;90.89
68609;SHT31;55581;46.718;7.690;2023-08-30T05:07:05;10.85;91.14
68609;SHT31;55581;46.718;7.690;2023-08-30T05:09:31;10.91;91.53
68609;SHT31;55581;46.718;7.690;2023-08-30T05:11:57;10.88;90.78
68609;SHT31;55581;46.718;7.690;2023-08-30T05:14:23;10.90;91.05
68609;SHT31;55581;46.718;7.690;2023-08-30T05:16:49;10.95;90.74
68609;SHT31;55581;46.718;7.690;2023-08-30T05:19:15;11.02;90.23
68609;SHT31;55581;46.718;7.690;2023-08-30T05:21:42;11.04;90.40
68609;SHT31;55581;46.718;7.690;2023-08-30T05:24:07;11.10;91.13
68609;SHT31;55581;46.718;7.690;2023-08-30T05:26:35;11.19;91.55
68609;SHT31;55581;46.718;7.690;2023-08-30T05:29:01;11.25;90.74
68609;SHT31;55581;46.718;7.690;2023-08-30T05:31:27;11.38;90.56
68609;SHT31;55581;46.718;7.690;2023-08-30T05:33:54;11.49;90.91
68609;SHT31;55581;46.718;7.690;2023-08-30T05:36:22;11.60;90.22
68609;SHT31;55581;46.718;7.690;2023-08-30T05:38:47;11.71;90.75
68609;SHT31;55581;46.718;7.690;2023-08-30T05:41:13;11.78;89.82
68609;SHT31;55581;46.718;7.690;2023-08-30T05:43:38;11.91;89.97
68609;SHT31;55581;46.718;7.690;2023-08-30T05:46:04;11.98;89.13
68609;SHT31;55581;46.718;7.690;2023-08-30T05:48:37;12.08;89.01
68609;SHT31;55581;46.718;7.690;2023-08-30T05:51:03;12.15;88.52
68609;SHT31;55581;46.718;7.690;2023-08-30T05:53:28;12.28;89.07
68609;SHT31;55581;46.718;7.690;2023-08-30T05:55:53;12.33;88.74
68609;SHT31;55581;46.718;7.690;2023-08-30T05:58:21;12.42;87.96
68609;SHT31;55581;46.718;7.690;2023-08-30T06:00:47;12.50;88.25
68609;SHT31;55581;46.718;7.690;2023-08-30T06:03:15;12.61;87.02
68609;SHT31;55581;46.718;7.690;2023-08-30T06:05:45;12.69;87.47
68609;SHT31;55581;46.718;7.690;2023-08-30T06:08:10;12.77;85.85
68609;SHT31;55581;46.718;7.690;2023-08-30T06:10:36;12.90;85.12
68609;SHT31;55581;46.718;7.690;2023-08-30T06:13:02;13.03;83.60
68609;SHT31;55581;46.718;7.690;2023-08-30T06:15:28;13.10;83.15
68609;SHT31;55581;46.718;7.690;2023-08-30T06:17:53;13.21;83.62
68609;SHT31;55581;46.718;7.690;2023-08-30T06:20:21;13.28;82.31
68609;SHT31;55581;46.718;7.690;2023-08-30T06:22:47;13.22;81.34
68609;SHT31;55581;46.718;7.690;2023-08-30T06:25:12;13.39;82.20
68609;SHT31;55581;46.718;7.690;2023-08-30T06:27:55;13.48;81.60
68609;SHT31;55581;46.718;7.690;2023-08-30T06:30:21;13.59;80.19
68609;SHT31;55581;46.718;7.690;2023-08-30T06:32:48;13.70;80.09
68609;SHT31;55581;46.718;7.690;2023-08-30T06:35:15;13.80;80.46
68609;SHT31;55581;46.718;7.690;2023-08-30T06:37:41;13.81;78.84
68609;SHT31;55581;46.718;7.690;2023-08-30T06:40:09;13.94;78.34
68609;SHT31;55581;46.718;7.690;2023-08-30T06:42:35;13.98;78.86
68609;SHT31;55581;46.718;7.690;2023-08-30T06:45:01;13.94;77.58
68609;SHT31;55581;46.718;7.690;2023-08-30T06:47:27;14.03;78.40
68609;SHT31;55581;46.718;7.690;2023-08-30T06:49:52;14.14;78.66
68609;SHT31;55581;46.718;7.690;2023-08-30T06:52:18;14.20;78.27
68609;SHT31;55581;46.718;7.690;2023-08-30T06:54:43;14.32;78.30
68609;SHT31;55581;46.718;7.690;2023-08-30T06:57:09;14.35;77.74
68609;SHT31;55581;46.718;7.690;2023-08-30T06:59:34;14.45;77.47
68609;SHT31;55581;46.718;7.690;2023-08-30T07:02:00;14.46;77.53
68609;SHT31;55581;46.718;7.690;2023-08-30T07:04:26;14.63;75.38
68609;SHT31;55581;46.718;7.690;2023-08-30T07:06:52;14.68;77.39
68609;SHT31;55581;46.718;7.690;2023-08-30T07:09:17;14.75;77.20
68609;SHT31;55581;46.718;7.690;2023-08-30T07:11:43;14.80;76.73
68609;SHT31;55581;46.718;7.690;2023-08-30T07:14:12;15.00;74.04
68609;SHT31;55581;46.718;7.690;2023-08-30T07:16:41;14.80;74.66
68609;SHT31;55581;46.718;7.690;2023-08-30T07:19:06;14.87;75.40
68609;SHT31;55581;46.718;7.690;2023-08-30T07:21:32;14.83;74.48
68609;SHT31;55581;46.718;7.690;2023-08-30T07:23:58;15.00;74.42
68609;SHT31;55581;46.718;7.690;2023-08-30T07:26:26;15.06;73.50
68609;SHT31;55581;46.718;7.690;2023-08-30T07:28:51;15.08;73.31
68609;SHT31;55581;46.718;7.690;2023-08-30T07:31:17;15.08;73.83
68609;SHT31;55581;46.718;7.690;2023-08-30T07:33:44;15.21;74.40
68609;SHT31;55581;46.718;7.690;2023-08-30T07:36:09;15.31;73.51
68609;SHT31;55581;46.718;7.690;2023-08-30T07:38:39;15.55;73.48
68609;SHT31;55581;46.718;7.690;2023-08-30T07:41:04;15.73;73.11
68609;SHT31;55581;46.718;7.690;2023-08-30T07:43:32;15.85;71.65
68609;SHT31;55581;46.718;7.690;2023-08-30T07:45:58;15.76;70.60
68609;SHT31;55581;46.718;7.690;2023-08-30T07:48:24;15.86;70.48
68609;SHT31;55581;46.718;7.690;2023-08-30T07:50:49;15.86;70.12
68609;SHT31;55581;46.718;7.690;2023-08-30T07:53:15;15.96;71.24
68609;SHT31;55581;46.718;7.690;2023-08-30T07:55:42;16.10;70.97
68609;SHT31;55581;46.718;7.690;2023-08-30T07:58:08;16.16;70.49
68609;SHT31;55581;46.718;7.690;2023-08-30T08:00:35;16.10;70.32
68609;SHT31;55581;46.718;7.690;2023-08-30T08:03:00;16.13;71.92
68609;SHT31;55581;46.718;7.690;2023-08-30T08:05:26;16.21;70.17
68609;SHT31;55581;46.718;7.690;2023-08-30T08:07:52;16.13;70.80
68609;SHT31;55581;46.718;7.690;2023-08-30T08:10:21;16.24;71.73
68609;SHT31;55581;46.718;7.690;2023-08-30T08:12:47;16.32;70.96
68609;SHT31;55581;46.718;7.690;2023-08-30T08:15:13;16.27;70.19
68609;SHT31;55581;46.718;7.690;2023-08-30T08:17:38;16.41;70.78
68609;SHT31;55581;46.718;7.690;2023-08-30T08:20:05;16.49;70.75
68609;SHT31;55581;46.718;7.690;2023-08-30T08:22:30;16.65;71.65
68609;SHT31;55581;46.718;7.690;2023-08-30T08:24:56;16.61;69.97
68609;SHT31;55581;46.718;7.690;2023-08-30T08:27:22;16.41;69.95
68609;SHT31;55581;46.718;7.690;2023-08-30T08:29:54;16.59;70.62
68609;SHT31;55581;46.718;7.690;2023-08-30T08:32:20;16.55;69.50
68609;SHT31;55581;46.718;7.690;2023-08-30T08:34:45;16.71;70.25
68609;SHT31;55581;46.718;7.690;2023-08-30T08:37:11;16.58;69.18
68609;SHT31;55581;46.718;7.690;2023-08-30T08:39:36;16.59;71.12
68609;SHT31;55581;46.718;7.690;2023-08-30T08:42:03;16.29;70.16
68609;SHT31;55581;46.718;7.690;2023-08-30T08:44:32;16.13;71.98
68609;SHT31;55581;46.718;7.690;2023-08-30T08:46:59;16.04;71.80
68609;SHT31;55581;46.718;7.690;2023-08-30T08:49:30;16.10;72.30
68609;SHT31;55581;46.718;7.690;2023-08-30T08:51:56;16.03;73.50
68609;SHT31;55581;46.718;7.690;2023-08-30T08:54:22;16.09;73.12
68609;SHT31;55581;46.718;7.690;2023-08-30T08:56:51;16.09;72.82
68609;SHT31;55581;46.718;7.690;2023-08-30T08:59:16;16.09;71.26
68609;SHT31;55581;46.718;7.690;2023-08-30T09:01:42;16.04;72.10
68609;SHT31;55581;46.718;7.690;2023-08-30T09:04:09;15.94;72.58
68609;SHT31;55581;46.718;7.690;2023-08-30T09:06:35;16.06;73.02
68609;SHT31;55581;46.718;7.690;2023-08-30T09:09:02;16.11;72.90
68609;SHT31;55581;46.718;7.690;2023-08-30T09:11:31;16.22;72.04
68609;SHT31;55581;46.718;7.690;2023-08-30T09:13:57;16.29;73.38
68609;SHT31;55581;46.718;7.690;2023-08-30T09:16:22;16.10;72.34
68609;SHT31;55581;46.718;7.690;2023-08-30T09:19:03;16.21;72.48
68609;SHT31;55581;46.718;7.690;2023-08-30T09:21:29;16.32;72.73
68609;SHT31;55581;46.718;7.690;2023-08-30T09:26:28;16.32;69.94
68609;SHT31;55581;46.718;7.690;2023-08-30T09:28:55;16.29;68.52
68609;SHT31;55581;46.718;7.690;2023-08-30T09:31:23;16.32;69.88
68609;SHT31;55581;46.718;7.690;2023-08-30T09:33:57;16.45;71.18
68609;SHT31;55581;46.718;7.690;2023-08-30T09:36:23;16.48;67.67
68609;SHT31;55581;46.718;7.690;2023-08-30T09:38:48;16.55;67.62
68609;SHT31;55581;46.718;7.690;2023-08-30T09:41:15;16.48;64.57
68609;SHT31;55581;46.718;7.690;2023-08-30T09:43:44;16.42;64.36
68609;SHT31;55581;46.718;7.690;2023-08-30T09:46:10;16.44;65.11
68609;SHT31;55581;46.718;7.690;2023-08-30T09:48:38;16.37;64.06
68609;SHT31;55581;46.718;7.690;2023-08-30T09:51:07;16.51;64.41
68609;SHT31;55581;46.718;7.690;2023-08-30T09:53:40;16.56;65.72
68609;SHT31;55581;46.718;7.690;2023-08-30T09:56:11;16.65;67.28
68609;SHT31;55581;46.718;7.690;2023-08-30T09:58:39;16.76;64.90
68609;SHT31;55581;46.718;7.690;2023-08-30T10:01:06;16.79;62.00
68609;SHT31;55581;46.718;7.690;2023-08-30T10:03:34;16.75;63.09
68609;SHT31;55581;46.718;7.690;2023-08-30T10:06:01;16.80;64.71
68609;SHT31;55581;46.718;7.690;2023-08-30T10:08:32;16.69;63.59
68609;SHT31;55581;46.718;7.690;2023-08-30T10:10:59;16.79;64.46
68609;SHT31;55581;46.718;7.690;2023-08-30T10:13:25;16.93;63.55
68609;SHT31;55581;46.718;7.690;2023-08-30T10:15:53;16.97;63.87
68609;SHT31;55581;46.718;7.690;2023-08-30T10:18:21;17.09;63.46
68609;SHT31;55581;46.718;7.690;2023-08-30T10:20:47;17.00;64.19
68609;SHT31;55581;46.718;7.690;2023-08-30T10:23:14;17.20;65.10
68609;SHT31;55581;46.718;7.690;2023-08-30T10:25:42;17.24;64.47
68609;SHT31;55581;46.718;7.690;2023-08-30T10:28:08;17.23;64.12
68609;SHT31;55581;46.718;7.690;2023-08-30T10:30:33;17.39;64.49
68609;SHT31;55581;46.718;7.690;2023-08-30T10:33:01;17.38;62.43
68609;SHT31;55581;46.718;7.690;2023-08-30T10:35:28;17.41;64.13
68609;SHT31;55581;46.718;7.690;2023-08-30T10:37:59;17.51;64.14
68609;SHT31;55581;46.718;7.690;2023-08-30T10:40:25;17.55;65.36
68609;SHT31;55581;46.718;7.690;2023-08-30T10:43:03;17.52;64.47
68609;SHT31;55581;46.718;7.690;2023-08-30T10:45:28;17.52;63.48
68609;SHT31;55581;46.718;7.690;2023-08-30T10:47:56;17.57;62.49
68609;SHT31;55581;46.718;7.690;2023-08-30T10:50:34;17.68;62.47
68609;SHT31;55581;46.718;7.690;2023-08-30T10:52:59;17.76;62.42
68609;SHT31;55581;46.718;7.690;2023-08-30T10:55:30;17.81;60.76
68609;SHT31;55581;46.718;7.690;2023-08-30T10:58:01;17.69;60.65
68609;SHT31;55581;46.718;7.690;2023-08-30T11:00:28;17.69;62.06
68609;SHT31;55581;46.718;7.690;2023-08-30T11:02:57;17.87;63.01
68609;SHT31;55581;46.718;7.690;2023-08-30T11:05:25;18.04;62.12
68609;SHT31;55581;46.718;7.690;2023-08-30T11:07:51;18.13;62.30
68609;SHT31;55581;46.718;7.690;2023-08-30T11:10:18;18.17;62.44
68609;SHT31;55581;46.718;7.690;2023-08-30T11:12:47;18.27;62.69
68609;SHT31;55581;46.718;7.690;2023-08-30T11:15:14;18.43;60.03
68609;SHT31;55581;46.718;7.690;2023-08-30T11:17:41;18.48;61.46
68609;SHT31;55581;46.718;7.690;2023-08-30T11:20:12;18.59;60.70
68609;SHT31;55581;46.718;7.690;2023-08-30T11:22:44;18.58;60.37
68609;SHT31;55581;46.718;7.690;2023-08-30T11:25:10;18.71;61.04
68609;SHT31;55581;46.718;7.690;2023-08-30T11:27:37;18.59;60.68
68609;SHT31;55581;46.718;7.690;2023-08-30T11:30:04;18.47;61.87
68609;SHT31;55581;46.718;7.690;2023-08-30T11:32:38;18.68;61.41
68609;SHT31;55581;46.718;7.690;2023-08-30T11:35:07;18.79;61.11
68609;SHT31;55581;46.718;7.690;2023-08-30T11:37:33;18.99;60.18
68609;SHT31;55581;46.718;7.690;2023-08-30T11:39:59;18.72;58.36
68609;SHT31;55581;46.718;7.690;2023-08-30T11:42:25;18.67;59.18
68609;SHT31;55581;46.718;7.690;2023-08-30T11:44:51;18.95;56.76
68609;SHT31;55581;46.718;7.690;2023-08-30T11:47:23;19.14;58.79
68609;SHT31;55581;46.718;7.690;2023-08-30T11:49:50;19.34;58.61
68609;SHT31;55581;46.718;7.690;2023-08-30T11:52:16;19.47;57.39
68609;SHT31;55581;46.718;7.690;2023-08-30T11:54:42;19.38;55.12
68609;SHT31;55581;46.718;7.690;2023-08-30T11:57:08;19.60;56.78
68609;SHT31;55581;46.718;7.690;2023-08-30T11:59:37;19.90;57.02
68609;SHT31;55581;46.718;7.690;2023-08-30T12:02:03;20.40;56.06
68609;SHT31;55581;46.718;7.690;2023-08-30T12:04:30;20.99;54.94
68609;SHT31;55581;46.718;7.690;2023-08-30T12:06:55;21.33;53.90
68609;SHT31;55581;46.718;7.690;2023-08-30T12:09:30;21.33;52.05
68609;SHT31;55581;46.718;7.690;2023-08-30T12:12:04;21.16;51.19
68609;SHT31;55581;46.718;7.690;2023-08-30T12:14:36;20.82;54.77
68609;SHT31;55581;46.718;7.690;2023-08-30T12:17:02;20.87;54.68
68609;SHT31;55581;46.718;7.690;2023-08-30T12:19:28;20.89;56.12
68609;SHT31;55581;46.718;7.690;2023-08-30T12:22:02;20.84;54.68
68609;SHT31;55581;46.718;7.690;2023-08-30T12:24:28;20.50;56.21
68609;SHT31;55581;46.718;7.690;2023-08-30T12:26:53;20.36;56.69
68609;SHT31;55581;46.718;7.690;2023-08-30T12:29:19;20.55;57.19
68609;SHT31;55581;46.718;7.690;2023-08-30T12:31:49;20.52;57.18
68609;SHT31;55581;46.718;7.690;2023-08-30T12:34:14;20.45;57.42
68609;SHT31;55581;46.718;7.690;2023-08-30T12:36:39;20.40;57.12
68609;SHT31;55581;46.718;7.690;2023-08-30T12:39:07;20.58;57.83
68609;SHT31;55581;46.718;7.690;2023-08-30T12:41:35;20.23;57.49
68609;SHT31;55581;46.718;7.690;2023-08-30T12:44:01;20.37;57.80
68609;SHT31;55581;46.718;7.690;2023-08-30T12:46:29;20.09;56.72
68609;SHT31;55581;46.718;7.690;2023-08-30T12:48:54;20.00;57.84
68609;SHT31;55581;46.718;7.690;2023-08-30T12:51:22;20.04;59.51
68609;SHT31;55581;46.718;7.690;2023-08-30T12:53:50;19.89;59.45
68609;SHT31;55581;46.718;7.690;2023-08-30T12:56:15;19.69;59.27
68609;SHT31;55581;46.718;7.690;2023-08-30T12:58:44;19.81;60.12
68609;SHT31;55581;46.718;7.690;2023-08-30T13:01:10;19.77;60.44
68609;SHT31;55581;46.718;7.690;2023-08-30T13:03:38;19.86;61.11
68609;SHT31;55581;46.718;7.690;2023-08-30T13:06:03;19.90;60.10
68609;SHT31;55581;46.718;7.690;2023-08-30T13:08:29;20.10;61.00
68609;SHT31;55581;46.718;7.690;2023-08-30T13:10:55;20.10;59.94
68609;SHT31;55581;46.718;7.690;2023-08-30T13:13:20;19.99;59.26
68609;SHT31;55581;46.718;7.690;2023-08-30T13:15:47;19.85;59.23
68609;SHT31;55581;46.718;7.690;2023-08-30T13:18:13;19.75;60.12
68609;SHT31;55581;46.718;7.690;2023-08-30T13:20:40;19.75;59.73
68609;SHT31;55581;46.718;7.690;2023-08-30T13:23:06;19.67;60.01
68609;SHT31;55581;46.718;7.690;2023-08-30T13:25:38;19.72;58.90
68609;SHT31;55581;46.718;7.690;2023-08-30T13:28:07;19.65;58.91
68609;SHT31;55581;46.718;7.690;2023-08-30T13:30:33;19.78;59.85
68609;SHT31;55581;46.718;7.690;2023-08-30T13:32:58;19.65;59.06
68609;SHT31;55581;46.718;7.690;2023-08-30T13:35:24;19.60;59.06
68609;SHT31;55581;46.718;7.690;2023-08-30T13:37:49;19.61;59.47
68609;SHT31;55581;46.718;7.690;2023-08-30T13:40:15;19.79;59.61
68609;SHT31;55581;46.718;7.690;2023-08-30T13:42:41;19.95;58.24
68609;SHT31;55581;46.718;7.690;2023-08-30T13:45:06;19.92;58.29
68609;SHT31;55581;46.718;7.690;2023-08-30T13:47:39;19.96;58.85
68609;SHT31;55581;46.718;7.690;2023-08-30T13:50:05;20.13;58.97
68609;SHT31;55581;46.718;7.690;2023-08-30T13:52:33;20.20;57.70
68609;SHT31;55581;46.718;7.690;2023-08-30T13:54:58;20.24;57.27
68609;SHT31;55581;46.718;7.690;2023-08-30T13:57:24;20.30;58.32
68609;SHT31;55581;46.718;7.690;2023-08-30T13:59:52;20.34;56.39
68609;SHT31;55581;46.718;7.690;2023-08-30T14:02:17;20.36;56.64
68609;SHT31;55581;46.718;7.690;2023-08-30T14:04:42;20.20;57.04
68609;SHT31;55581;46.718;7.690;2023-08-30T14:07:10;20.17;55.77
68609;SHT31;55581;46.718;7.690;2023-08-30T14:09:37;20.22;57.07
68609;SHT31;55581;46.718;7.690;2023-08-30T14:12:05;20.20;56.71
68609;SHT31;55581;46.718;7.690;2023-08-30T14:14:31;20.23;57.27
68609;SHT31;55581;46.718;7.690;2023-08-30T14:16:56;20.29;56.88
68609;SHT31;55581;46.718;7.690;2023-08-30T14:19:24;20.40;56.99
68609;SHT31;55581;46.718;7.690;2023-08-30T14:21:50;20.27;57.23
68609;SHT31;55581;46.718;7.690;2023-08-30T14:24:22;20.26;56.91
68609;SHT31;55581;46.718;7.690;2023-08-30T14:26:47;20.30;57.48
68609;SHT31;55581;46.718;7.690;2023-08-30T14:29:13;20.32;56.65
68609;SHT31;55581;46.718;7.690;2023-08-30T14:31:38;20.70;57.85
68609;SHT31;55581;46.718;7.690;2023-08-30T14:34:06;20.81;57.72
68609;SHT31;55581;46.718;7.690;2023-08-30T14:36:32;20.67;56.32
68609;SHT31;55581;46.718;7.690;2023-08-30T14:38:58;20.75;56.45
68609;SHT31;55581;46.718;7.690;2023-08-30T14:41:24;20.52;55.88
68609;SHT31;55581;46.718;7.690;2023-08-30T14:43:49;20.43;57.94
68609;SHT31;55581;46.718;7.690;2023-08-30T14:46:15;20.19;57.17
68609;SHT31;55581;46.718;7.690;2023-08-30T14:48:41;20.20;57.15
68609;SHT31;55581;46.718;7.690;2023-08-30T14:51:07;20.17;59.10
68609;SHT31;55581;46.718;7.690;2023-08-30T14:53:32;20.05;58.62
68609;SHT31;55581;46.718;7.690;2023-08-30T14:55:58;20.04;58.03
68609;SHT31;55581;46.718;7.690;2023-08-30T14:58:26;20.00;57.71
68609;SHT31;55581;46.718;7.690;2023-08-30T15:00:51;19.83;60.25
68609;SHT31;55581;46.718;7.690;2023-08-30T15:03:19;19.95;59.32
68609;SHT31;55581;46.718;7.690;2023-08-30T15:05:52;20.02;58.45
68609;SHT31;55581;46.718;7.690;2023-08-30T15:08:19;19.83;58.57
68609;SHT31;55581;46.718;7.690;2023-08-30T15:10:44;19.75;59.15
68609;SHT31;55581;46.718;7.690;2023-08-30T15:13:10;19.72;59.42
68609;SHT31;55581;46.718;7.690;2023-08-30T15:15:35;19.65;59.42
68609;SHT31;55581;46.718;7.690;2023-08-30T15:18:03;19.65;60.75
68609;SHT31;55581;46.718;7.690;2023-08-30T15:20:28;19.57;60.20
68609;SHT31;55581;46.718;7.690;2023-08-30T15:22:54;19.58;59.96
68609;SHT31;55581;46.718;7.690;2023-08-30T15:25:19;19.55;58.69
68609;SHT31;55581;46.718;7.690;2023-08-30T15:27:45;19.53;60.51
68609;SHT31;55581;46.718;7.690;2023-08-30T15:30:14;19.51;60.88
68609;SHT31;55581;46.718;7.690;2023-08-30T15:32:43;19.54;59.77
68609;SHT31;55581;46.718;7.690;2023-08-30T15:35:09;19.64;59.89
68609;SHT31;55581;46.718;7.690;2023-08-30T15:37:35;19.65;59.77
68609;SHT31;55581;46.718;7.690;2023-08-30T15:40:03;19.72;59.58